sensor_id;sensor_type;location;lat;lon;timestamp;temperature;humidity
69382;DHT22;56560;50.692;12.844;2023-06-14T00:00:47;8.70;80.40
69382;DHT22;56560;50.692;12.844;2023-06-14T00:03:14;8.70;81.00
69382;DHT22;56560;50.692;12.844;2023-06-14T00:05:43;8.60;80.50
69382;DHT22;56560;50.692;12.844;2023-06-14T00:08:09;8.60;80.40
69382;DHT22;56560;50.692;12.844;2023-06-14T00:10:38;8.60;80.40
69382;DHT22;56560;50.692;12.844;2023-06-14T00:13:06;8.50;81.70
69382;DHT22;56560;50.692;12.844;2023-06-14T00:15:33;8.50;81.00
69382;DHT22;56560;50.692;12.844;2023-06-14T00:17:59;8.50;81.20
69382;DHT22;56560;50.692;12.844;2023-06-14T00:20:28;8.50;82.30
69382;DHT22;56560;50.692;12.844;2023-06-14T00:22:54;8.50;81.40
69382;DHT22;56560;50.692;12.844;2023-06-14T00:25:22;8.50;81.50
69382;DHT22;56560;50.692;12.844;2023-06-14T00:27:49;8.50;81.00
69382;DHT22;56560;50.692;12.844;2023-06-14T00:30:14;8.40;81.50
69382;DHT22;56560;50.692;12.844;2023-06-14T00:32:40;8.40;80.90
69382;DHT22;56560;50.692;12.844;2023-06-14T00:35:08;8.30;81.10
69382;DHT22;56560;50.692;12.844;2023-06-14T00:37:34;8.20;80.70
69382;DHT22;56560;50.692;12.844;2023-06-14T00:40:00;8.20;82.20
69382;DHT22;56560;50.692;12.844;2023-06-14T00:42:28;8.20;82.30
69382;DHT22;56560;50.692;12.844;2023-06-14T00:44:54;8.20;83.00
69382;DHT22;56560;50.692;12.844;2023-06-14T00:47:20;8.30;82.20
69382;DHT22;56560;50.692;12.844;2023-06-14T00:49:47;8.20;81.80
69382;DHT22;56560;50.692;12.844;2023-06-14T00:52:17;8.20;82.40
69382;DHT22;56560;50.692;12.844;2023-06-14T00:54:44;8.20;81.70
69382;DHT22;56560;50.692;12.844;2023-06-14T00:57:10;8.10;82.20
69382;DHT22;56560;50.692;12.844;2023-06-14T00:59:47;8.10;82.50
69382;DHT22;56560;50.692;12.844;2023-06-14T01:02:14;8.10;83.40
69382;DHT22;56560;50.692;12.844;2023-06-14T01:04:47;8.10;83.50
69382;DHT22;56560;50.692;12.844;2023-06-14T01:13:15;8.00;82.20
69382;DHT22;56560;50.692;12.844;2023-06-14T01:15:44;8.00;82.80
69382;DHT22;56560;50.692;12.844;2023-06-14T01:18:09;8.00;83.70
69382;DHT22;56560;50.692;12.844;2023-06-14T01:20:42;8.00;82.60
69382;DHT22;56560;50.692;12.844;2023-06-14T01:23:10;7.90;82.80
69382;DHT22;56560;50.692;12.844;2023-06-14T01:25:37;7.90;81.90
69382;DHT22;56560;50.692;12.844;2023-06-14T01:28:05;7.90;82.00
69382;DHT22;56560;50.692;12.844;2023-06-14T01:30:40;7.90;83.10
69382;DHT22;56560;50.692;12.844;2023-06-14T01:33:25;7.90;83.50
69382;DHT22;56560;50.692;12.844;2023-06-14T01:35:52;7.80;83.60
69382;DHT22;56560;50.692;12.844;2023-06-14T01:38:24;7.80;83.60
69382;DHT22;56560;50.692;12.844;2023-06-14T01:40:51;7.70;82.50
69382;DHT22;56560;50.692;12.844;2023-06-14T01:43:19;7.60;82.50
69382;DHT22;56560;50.692;12.844;2023-06-14T01:45:47;7.60;82.70
69382;DHT22;56560;50.692;12.844;2023-06-14T01:48:14;7.50;83.20
69382;DHT22;56560;50.692;12.844;2023-06-14T01:50:40;7.50;83.90
69382;DHT22;56560;50.692;12.844;2023-06-14T01:53:09;7.50;84.10
69382;DHT22;56560;50.692;12.844;2023-06-14T01:55:35;7.50;84.00
69382;DHT22;56560;50.692;12.844;2023-06-14T01:58:06;7.50;83.20
69382;DHT22;56560;50.692;12.844;2023-06-14T02:00:32;7.50;82.70
69382;DHT22;56560;50.692;12.844;2023-06-14T02:02:57;7.40;82.60
69382;DHT22;56560;50.692;12.844;2023-06-14T02:05:24;7.40;82.90
69382;DHT22;56560;50.692;12.844;2023-06-14T02:07:49;7.40;82.90
69382;DHT22;56560;50.692;12.844;2023-06-14T02:10:16;7.30;84.60
69382;DHT22;56560;50.692;12.844;2023-06-14T02:12:43;7.40;83.80
69382;DHT22;56560;50.692;12.844;2023-06-14T02:15:09;7.40;84.50
69382;DHT22;56560;50.692;12.844;2023-06-14T02:17:35;7.40;83.40
69382;DHT22;56560;50.692;12.844;2023-06-14T02:20:01;7.30;82.90
69382;DHT22;56560;50.692;12.844;2023-06-14T02:22:28;7.30;82.90
69382;DHT22;56560;50.692;12.844;2023-06-14T02:24:54;7.20;82.90
69382;DHT22;56560;50.692;12.844;2023-06-14T02:27:19;7.20;84.40
69382;DHT22;56560;50.692;12.844;2023-06-14T02:29:45;7.20;84.10
69382;DHT22;56560;50.692;12.844;2023-06-14T02:32:10;7.10;83.20
69382;DHT22;56560;50.692;12.844;2023-06-14T02:34:36;7.10;83.90
69382;DHT22;56560;50.692;12.844;2023-06-14T02:37:02;7.10;83.80
69382;DHT22;56560;50.692;12.844;2023-06-14T02:39:29;7.10;83.40
69382;DHT22;56560;50.692;12.844;2023-06-14T02:41:54;7.00;83.20
69382;DHT22;56560;50.692;12.844;2023-06-14T02:44:24;7.00;83.30
69382;DHT22;56560;50.692;12.844;2023-06-14T02:46:52;7.00;83.20
69382;DHT22;56560;50.692;12.844;2023-06-14T02:49:17;6.90;83.10
69382;DHT22;56560;50.692;12.844;2023-06-14T02:51:43;6.90;84.10
69382;DHT22;56560;50.692;12.844;2023-06-14T02:54:09;6.90;83.60
69382;DHT22;56560;50.692;12.844;2023-06-14T02:56:34;6.90;83.60
69382;DHT22;56560;50.692;12.844;2023-06-14T02:59:01;6.90;84.10
69382;DHT22;56560;50.692;12.844;2023-06-14T03:01:27;6.90;83.20
69382;DHT22;56560;50.692;12.844;2023-06-14T03:04:03;6.90;83.10
69382;DHT22;56560;50.692;12.844;2023-06-14T03:06:29;7.00;83.00
69382;DHT22;56560;50.692;12.844;2023-06-14T03:08:56;6.90;82.90
69382;DHT22;56560;50.692;12.844;2023-06-14T03:11:25;6.90;83.40
69382;DHT22;56560;50.692;12.844;2023-06-14T03:13:51;6.90;84.50
69382;DHT22;56560;50.692;12.844;2023-06-14T03:16:17;7.00;83.60
69382;DHT22;56560;50.692;12.844;2023-06-14T03:18:51;7.00;83.20
69382;DHT22;56560;50.692;12.844;2023-06-14T03:21:21;7.00;82.80
69382;DHT22;56560;50.692;12.844;2023-06-14T03:23:47;7.00;84.20
69382;DHT22;56560;50.692;12.844;2023-06-14T03:26:14;7.00;83.20
69382;DHT22;56560;50.692;12.844;2023-06-14T03:28:41;7.00;82.90
69382;DHT22;56560;50.692;12.844;2023-06-14T03:31:07;7.00;83.10
69382;DHT22;56560;50.692;12.844;2023-06-14T03:33:34;7.10;82.60
69382;DHT22;56560;50.692;12.844;2023-06-14T03:35:59;7.10;83.90
69382;DHT22;56560;50.692;12.844;2023-06-14T03:38:25;7.20;82.90
69382;DHT22;56560;50.692;12.844;2023-06-14T03:40:51;7.20;82.40
69382;DHT22;56560;50.692;12.844;2023-06-14T03:43:16;7.20;82.00
69382;DHT22;56560;50.692;12.844;2023-06-14T03:45:42;7.30;82.10
69382;DHT22;56560;50.692;12.844;2023-06-14T03:48:09;7.30;82.00
69382;DHT22;56560;50.692;12.844;2023-06-14T03:50:35;7.40;81.50
69382;DHT22;56560;50.692;12.844;2023-06-14T03:53:03;7.50;81.20
69382;DHT22;56560;50.692;12.844;2023-06-14T03:55:29;7.60;80.90
69382;DHT22;56560;50.692;12.844;2023-06-14T03:57:57;7.70;80.90
69382;DHT22;56560;50.692;12.844;2023-06-14T04:00:22;7.70;81.40
69382;DHT22;56560;50.692;12.844;2023-06-14T04:02:48;7.90;81.80
69382;DHT22;56560;50.692;12.844;2023-06-14T04:05:14;8.00;80.30
69382;DHT22;56560;50.692;12.844;2023-06-14T04:07:42;8.00;80.10
69382;DHT22;56560;50.692;12.844;2023-06-14T04:10:13;8.20;79.80
69382;DHT22;56560;50.692;12.844;2023-06-14T04:12:40;8.30;79.70
69382;DHT22;56560;50.692;12.844;2023-06-14T04:15:06;8.40;79.80
69382;DHT22;56560;50.692;12.844;2023-06-14T04:17:33;8.50;79.50
69382;DHT22;56560;50.692;12.844;2023-06-14T04:20:00;8.70;79.40
69382;DHT22;56560;50.692;12.844;2023-06-14T04:22:26;8.80;79.00
69382;DHT22;56560;50.692;12.844;2023-06-14T04:24:54;8.90;79.70
69382;DHT22;56560;50.692;12.844;2023-06-14T04:27:25;9.00;79.30
69382;DHT22;56560;50.692;12.844;2023-06-14T04:29:55;9.10;79.90
69382;DHT22;56560;50.692;12.844;2023-06-14T04:32:25;9.20;79.50
69382;DHT22;56560;50.692;12.844;2023-06-14T04:34:53;9.40;79.10
69382;DHT22;56560;50.692;12.844;2023-06-14T04:37:23;9.50;78.70
69382;DHT22;56560;50.692;12.844;2023-06-14T04:39:49;9.70;78.50
69382;DHT22;56560;50.692;12.844;2023-06-14T04:42:15;9.90;79.20
69382;DHT22;56560;50.692;12.844;2023-06-14T04:44:42;10.10;79.20
69382;DHT22;56560;50.692;12.844;2023-06-14T04:47:09;10.30;77.80
69382;DHT22;56560;50.692;12.844;2023-06-14T04:49:35;10.50;77.80
69382;DHT22;56560;50.692;12.844;2023-06-14T04:52:00;10.70;78.00
69382;DHT22;56560;50.692;12.844;2023-06-14T04:54:27;10.80;78.10
69382;DHT22;56560;50.692;12.844;2023-06-14T04:56:53;11.00;77.90
69382;DHT22;56560;50.692;12.844;2023-06-14T04:59:21;11.20;77.40
69382;DHT22;56560;50.692;12.844;2023-06-14T05:01:49;11.40;76.90
69382;DHT22;56560;50.692;12.844;2023-06-14T05:04:15;11.60;76.30
69382;DHT22;56560;50.692;12.844;2023-06-14T05:06:42;11.80;75.90
69382;DHT22;56560;50.692;12.844;2023-06-14T05:09:13;11.90;75.00
69382;DHT22;56560;50.692;12.844;2023-06-14T05:11:39;12.00;74.90
69382;DHT22;56560;50.692;12.844;2023-06-14T05:14:05;12.20;74.40
69382;DHT22;56560;50.692;12.844;2023-06-14T05:16:31;12.40;73.80
69382;DHT22;56560;50.692;12.844;2023-06-14T05:18:57;12.60;73.00
69382;DHT22;56560;50.692;12.844;2023-06-14T05:21:23;12.80;72.30
69382;DHT22;56560;50.692;12.844;2023-06-14T05:23:49;12.90;72.00
69382;DHT22;56560;50.692;12.844;2023-06-14T05:26:16;13.00;72.00
69382;DHT22;56560;50.692;12.844;2023-06-14T05:28:41;13.20;71.30
69382;DHT22;56560;50.692;12.844;2023-06-14T05:31:07;13.30;71.10
69382;DHT22;56560;50.692;12.844;2023-06-14T05:33:33;13.40;70.30
69382;DHT22;56560;50.692;12.844;2023-06-14T05:35:58;13.50;70.20
69382;DHT22;56560;50.692;12.844;2023-06-14T05:38:24;13.60;69.80
69382;DHT22;56560;50.692;12.844;2023-06-14T05:40:50;13.80;68.90
69382;DHT22;56560;50.692;12.844;2023-06-14T05:43:17;13.90;69.10
69382;DHT22;56560;50.692;12.844;2023-06-14T05:45:42;14.00;68.40
69382;DHT22;56560;50.692;12.844;2023-06-14T05:48:08;14.10;68.50
69382;DHT22;56560;50.692;12.844;2023-06-14T05:50:34;14.20;67.50
69382;DHT22;56560;50.692;12.844;2023-06-14T05:52:59;14.30;68.10
69382;DHT22;56560;50.692;12.844;2023-06-14T05:55:25;14.40;67.50
69382;DHT22;56560;50.692;12.844;2023-06-14T05:57:51;14.50;67.00
69382;DHT22;56560;50.692;12.844;2023-06-14T06:00:17;14.50;66.90
69382;DHT22;56560;50.692;12.844;2023-06-14T06:02:43;14.60;66.60
69382;DHT22;56560;50.692;12.844;2023-06-14T06:05:10;14.80;66.10
69382;DHT22;56560;50.692;12.844;2023-06-14T06:07:36;15.10;65.40
69382;DHT22;56560;50.692;12.844;2023-06-14T06:10:03;15.10;64.70
69382;DHT22;56560;50.692;12.844;2023-06-14T06:12:29;15.20;64.80
69382;DHT22;56560;50.692;12.844;2023-06-14T06:14:55;15.20;64.30
69382;DHT22;56560;50.692;12.844;2023-06-14T06:17:21;15.20;64.00
69382;DHT22;56560;50.692;12.844;2023-06-14T06:19:46;15.20;63.90
69382;DHT22;56560;50.692;12.844;2023-06-14T06:22:12;15.20;64.10
69382;DHT22;56560;50.692;12.844;2023-06-14T06:24:38;15.10;64.20
69382;DHT22;56560;50.692;12.844;2023-06-14T06:27:04;15.00;64.10
69382;DHT22;56560;50.692;12.844;2023-06-14T06:29:29;15.10;64.00
69382;DHT22;56560;50.692;12.844;2023-06-14T06:31:55;15.40;63.60
69382;DHT22;56560;50.692;12.844;2023-06-14T06:34:21;15.60;63.00
69382;DHT22;56560;50.692;12.844;2023-06-14T06:36:47;15.60;61.90
69382;DHT22;56560;50.692;12.844;2023-06-14T06:39:13;15.80;61.00
69382;DHT22;56560;50.692;12.844;2023-06-14T06:41:40;16.00;61.50
69382;DHT22;56560;50.692;12.844;2023-06-14T06:44:07;16.20;60.70
69382;DHT22;56560;50.692;12.844;2023-06-14T06:46:33;16.30;59.80
69382;DHT22;56560;50.692;12.844;2023-06-14T06:48:59;16.60;59.30
69382;DHT22;56560;50.692;12.844;2023-06-14T06:51:24;16.90;57.40
69382;DHT22;56560;50.692;12.844;2023-06-14T06:53:54;16.90;56.00
69382;DHT22;56560;50.692;12.844;2023-06-14T06:56:23;16.80;55.10
69382;DHT22;56560;50.692;12.844;2023-06-14T06:58:50;16.80;56.50
69382;DHT22;56560;50.692;12.844;2023-06-14T07:01:16;16.90;57.00
69382;DHT22;56560;50.692;12.844;2023-06-14T07:03:42;16.90;57.00
69382;DHT22;56560;50.692;12.844;2023-06-14T07:06:08;17.00;57.30
69382;DHT22;56560;50.692;12.844;2023-06-14T07:08:33;17.10;57.20
69382;DHT22;56560;50.692;12.844;2023-06-14T07:10:59;17.10;56.50
69382;DHT22;56560;50.692;12.844;2023-06-14T07:13:25;17.10;55.70
69382;DHT22;56560;50.692;12.844;2023-06-14T07:15:54;17.20;55.70
69382;DHT22;56560;50.692;12.844;2023-06-14T07:18:20;17.30;55.50
69382;DHT22;56560;50.692;12.844;2023-06-14T07:20:46;17.50;54.90
69382;DHT22;56560;50.692;12.844;2023-06-14T07:23:13;17.40;55.50
69382;DHT22;56560;50.692;12.844;2023-06-14T07:25:38;17.60;55.40
69382;DHT22;56560;50.692;12.844;2023-06-14T07:28:04;17.60;55.20
69382;DHT22;56560;50.692;12.844;2023-06-14T07:30:30;17.70;54.60
69382;DHT22;56560;50.692;12.844;2023-06-14T07:32:55;17.60;54.30
69382;DHT22;56560;50.692;12.844;2023-06-14T07:35:22;17.60;55.00
69382;DHT22;56560;50.692;12.844;2023-06-14T07:37:48;17.90;54.00
69382;DHT22;56560;50.692;12.844;2023-06-14T07:40:13;17.90;53.30
69382;DHT22;56560;50.692;12.844;2023-06-14T07:42:39;17.90;54.40
69382;DHT22;56560;50.692;12.844;2023-06-14T07:45:06;18.10;53.60
69382;DHT22;56560;50.692;12.844;2023-06-14T07:47:32;18.20;53.30
69382;DHT22;56560;50.692;12.844;2023-06-14T07:49:58;18.20;53.20
69382;DHT22;56560;50.692;12.844;2023-06-14T07:52:24;18.30;52.60
69382;DHT22;56560;50.692;12.844;2023-06-14T07:54:51;18.30;53.10
69382;DHT22;56560;50.692;12.844;2023-06-14T07:57:16;18.40;53.00
69382;DHT22;56560;50.692;12.844;2023-06-14T07:59:42;18.60;51.90
69382;DHT22;56560;50.692;12.844;2023-06-14T08:02:08;18.50;51.90
69382;DHT22;56560;50.692;12.844;2023-06-14T08:04:33;18.40;51.30
69382;DHT22;56560;50.692;12.844;2023-06-14T08:06:59;18.40;52.50
69382;DHT22;56560;50.692;12.844;2023-06-14T08:09:26;18.60;52.80
69382;DHT22;56560;50.692;12.844;2023-06-14T08:11:53;19.00;52.40
69382;DHT22;56560;50.692;12.844;2023-06-14T08:14:19;19.10;51.20
69382;DHT22;56560;50.692;12.844;2023-06-14T08:16:44;19.10;51.40
69382;DHT22;56560;50.692;12.844;2023-06-14T08:19:10;18.90;51.10
69382;DHT22;56560;50.692;12.844;2023-06-14T08:21:35;19.00;52.40
69382;DHT22;56560;50.692;12.844;2023-06-14T08:24:02;19.10;51.40
69382;DHT22;56560;50.692;12.844;2023-06-14T08:26:27;19.20;51.30
69382;DHT22;56560;50.692;12.844;2023-06-14T08:28:57;19.30;51.80
69382;DHT22;56560;50.692;12.844;2023-06-14T08:31:23;19.20;51.10
69382;DHT22;56560;50.692;12.844;2023-06-14T08:33:50;19.10;51.20
69382;DHT22;56560;50.692;12.844;2023-06-14T08:36:16;19.30;51.50
69382;DHT22;56560;50.692;12.844;2023-06-14T08:38:42;19.40;51.60
69382;DHT22;56560;50.692;12.844;2023-06-14T08:41:08;19.70;51.30
69382;DHT22;56560;50.692;12.844;2023-06-14T08:43:37;19.90;50.30
69382;DHT22;56560;50.692;12.844;2023-06-14T08:46:03;20.00;49.00
69382;DHT22;56560;50.692;12.844;2023-06-14T08:48:30;20.20;47.70
69382;DHT22;56560;50.692;12.844;2023-06-14T08:51:02;20.10;48.00
69382;DHT22;56560;50.692;12.844;2023-06-14T08:53:33;20.20;48.30
69382;DHT22;56560;50.692;12.844;2023-06-14T08:56:02;20.30;47.30
69382;DHT22;56560;50.692;12.844;2023-06-14T08:58:31;20.40;48.20
69382;DHT22;56560;50.692;12.844;2023-06-14T09:01:01;20.70;47.00
69382;DHT22;56560;50.692;12.844;2023-06-14T09:03:27;20.90;45.60
69382;DHT22;56560;50.692;12.844;2023-06-14T09:05:59;21.00;45.10
69382;DHT22;56560;50.692;12.844;2023-06-14T09:08:27;21.00;44.80
69382;DHT22;56560;50.692;12.844;2023-06-14T09:10:56;20.90;44.50
69382;DHT22;56560;50.692;12.844;2023-06-14T09:13:22;21.00;44.70
69382;DHT22;56560;50.692;12.844;2023-06-14T09:15:47;21.20;43.50
69382;DHT22;56560;50.692;12.844;2023-06-14T09:18:13;21.40;44.30
69382;DHT22;56560;50.692;12.844;2023-06-14T09:20:40;21.20;43.60
69382;DHT22;56560;50.692;12.844;2023-06-14T09:23:06;21.20;43.80
69382;DHT22;56560;50.692;12.844;2023-06-14T09:25:41;21.20;43.40
69382;DHT22;56560;50.692;12.844;2023-06-14T09:28:07;21.10;43.70
69382;DHT22;56560;50.692;12.844;2023-06-14T09:30:35;20.80;44.40
69382;DHT22;56560;50.692;12.844;2023-06-14T09:33:01;20.40;43.70
69382;DHT22;56560;50.692;12.844;2023-06-14T09:35:26;20.30;44.40
69382;DHT22;56560;50.692;12.844;2023-06-14T09:37:55;20.70;43.30
69382;DHT22;56560;50.692;12.844;2023-06-14T09:40:21;21.00;43.50
69382;DHT22;56560;50.692;12.844;2023-06-14T09:42:47;21.50;43.10
69382;DHT22;56560;50.692;12.844;2023-06-14T09:45:13;21.60;41.70
69382;DHT22;56560;50.692;12.844;2023-06-14T09:47:39;21.70;41.80
69382;DHT22;56560;50.692;12.844;2023-06-14T09:50:06;21.70;41.70
69382;DHT22;56560;50.692;12.844;2023-06-14T09:52:31;21.90;41.50
69382;DHT22;56560;50.692;12.844;2023-06-14T09:54:59;21.60;41.60
69382;DHT22;56560;50.692;12.844;2023-06-14T09:57:25;21.60;41.60
69382;DHT22;56560;50.692;12.844;2023-06-14T09:59:57;21.80;41.00
69382;DHT22;56560;50.692;12.844;2023-06-14T10:02:35;21.90;40.90
69382;DHT22;56560;50.692;12.844;2023-06-14T10:05:07;21.80;40.50
69382;DHT22;56560;50.692;12.844;2023-06-14T10:07:51;22.10;40.10
69382;DHT22;56560;50.692;12.844;2023-06-14T10:10:18;22.20;40.60
69382;DHT22;56560;50.692;12.844;2023-06-14T10:12:44;22.40;41.10
69382;DHT22;56560;50.692;12.844;2023-06-14T10:15:15;22.40;40.50
69382;DHT22;56560;50.692;12.844;2023-06-14T10:17:57;22.10;41.30
69382;DHT22;56560;50.692;12.844;2023-06-14T10:20:42;22.00;41.20
69382;DHT22;56560;50.692;12.844;2023-06-14T10:23:28;22.00;41.60
69382;DHT22;56560;50.692;12.844;2023-06-14T10:25:58;22.20;41.00
69382;DHT22;56560;50.692;12.844;2023-06-14T10:28:25;22.60;40.30
69382;DHT22;56560;50.692;12.844;2023-06-14T10:31:12;23.20;38.80
69382;DHT22;56560;50.692;12.844;2023-06-14T10:34:11;23.30;39.20
69382;DHT22;56560;50.692;12.844;2023-06-14T10:36:41;23.20;38.20
69382;DHT22;56560;50.692;12.844;2023-06-14T10:39:08;23.30;38.80
69382;DHT22;56560;50.692;12.844;2023-06-14T10:41:41;23.60;37.80
69382;DHT22;56560;50.692;12.844;2023-06-14T10:46:38;23.90;35.70
69382;DHT22;56560;50.692;12.844;2023-06-14T10:49:04;23.20;36.90
69382;DHT22;56560;50.692;12.844;2023-06-14T10:51:38;23.20;37.70
69382;DHT22;56560;50.692;12.844;2023-06-14T10:54:20;23.40;38.40
69382;DHT22;56560;50.692;12.844;2023-06-14T10:56:50;23.50;37.50
69382;DHT22;56560;50.692;12.844;2023-06-14T10:59:18;22.90;39.00
69382;DHT22;56560;50.692;12.844;2023-06-14T11:04:17;22.00;40.40
69382;DHT22;56560;50.692;12.844;2023-06-14T11:06:49;21.90;41.40
69382;DHT22;56560;50.692;12.844;2023-06-14T11:12:04;22.20;41.30
69382;DHT22;56560;50.692;12.844;2023-06-14T11:14:31;22.80;39.60
69382;DHT22;56560;50.692;12.844;2023-06-14T11:16:56;22.90;39.70
69382;DHT22;56560;50.692;12.844;2023-06-14T11:19:22;23.40;39.70
69382;DHT22;56560;50.692;12.844;2023-06-14T11:21:48;23.30;38.80
69382;DHT22;56560;50.692;12.844;2023-06-14T11:24:14;22.70;39.60
69382;DHT22;56560;50.692;12.844;2023-06-14T11:26:40;22.80;40.60
69382;DHT22;56560;50.692;12.844;2023-06-14T11:29:06;23.30;39.50
69382;DHT22;56560;50.692;12.844;2023-06-14T11:31:32;23.80;38.80
69382;DHT22;56560;50.692;12.844;2023-06-14T11:33:59;24.20;37.50
69382;DHT22;56560;50.692;12.844;2023-06-14T11:36:29;24.50;37.10
69382;DHT22;56560;50.692;12.844;2023-06-14T11:39:03;25.00;36.60
69382;DHT22;56560;50.692;12.844;2023-06-14T11:44:04;25.00;37.20
69382;DHT22;56560;50.692;12.844;2023-06-14T11:46:30;24.50;36.90
69382;DHT22;56560;50.692;12.844;2023-06-14T11:48:55;24.20;37.20
69382;DHT22;56560;50.692;12.844;2023-06-14T11:51:21;25.00;37.00
69382;DHT22;56560;50.692;12.844;2023-06-14T11:53:47;26.50;34.80
69382;DHT22;56560;50.692;12.844;2023-06-14T11:56:13;27.90;32.30
69382;DHT22;56560;50.692;12.844;2023-06-14T11:58:39;29.20;31.50
69382;DHT22;56560;50.692;12.844;2023-06-14T12:01:05;30.10;30.50
69382;DHT22;56560;50.692;12.844;2023-06-14T12:03:31;30.80;30.30
69382;DHT22;56560;50.692;12.844;2023-06-14T12:06:07;30.90;29.70
69382;DHT22;56560;50.692;12.844;2023-06-14T12:08:37;30.30;29.70
69382;DHT22;56560;50.692;12.844;2023-06-14T12:11:13;28.30;31.90
69382;DHT22;56560;50.692;12.844;2023-06-14T12:13:42;26.90;33.40
69382;DHT22;56560;50.692;12.844;2023-06-14T12:16:09;27.80;33.20
69382;DHT22;56560;50.692;12.844;2023-06-14T12:18:39;28.50;31.20
69382;DHT22;56560;50.692;12.844;2023-06-14T12:21:06;27.90;31.90
69382;DHT22;56560;50.692;12.844;2023-06-14T12:23:46;27.20;33.10
69382;DHT22;56560;50.692;12.844;2023-06-14T12:26:17;26.40;34.30
69382;DHT22;56560;50.692;12.844;2023-06-14T12:28:45;25.60;35.20
69382;DHT22;56560;50.692;12.844;2023-06-14T12:31:12;25.40;35.40
69382;DHT22;56560;50.692;12.844;2023-06-14T12:33:38;25.40;35.30
69382;DHT22;56560;50.692;12.844;2023-06-14T12:36:06;25.10;35.90
69382;DHT22;56560;50.692;12.844;2023-06-14T12:38:32;25.10;35.90
69382;DHT22;56560;50.692;12.844;2023-06-14T12:40:58;24.60;35.70
69382;DHT22;56560;50.692;12.844;2023-06-14T12:43:24;24.20;37.50
69382;DHT22;56560;50.692;12.844;2023-06-14T12:45:50;24.00;37.10
69382;DHT22;56560;50.692;12.844;2023-06-14T12:48:15;24.00;37.50
69382;DHT22;56560;50.692;12.844;2023-06-14T12:50:41;24.20;37.90
69382;DHT22;56560;50.692;12.844;2023-06-14T12:53:07;25.80;35.50
69382;DHT22;56560;50.692;12.844;2023-06-14T12:55:33;27.60;33.50
69382;DHT22;56560;50.692;12.844;2023-06-14T12:57:58;28.90;31.40
69382;DHT22;56560;50.692;12.844;2023-06-14T13:00:24;30.40;29.90
69382;DHT22;56560;50.692;12.844;2023-06-14T13:02:51;32.30;27.80
69382;DHT22;56560;50.692;12.844;2023-06-14T13:05:17;33.30;27.20
69382;DHT22;56560;50.692;12.844;2023-06-14T13:07:43;33.80;27.20
69382;DHT22;56560;50.692;12.844;2023-06-14T13:10:10;33.30;27.40
69382;DHT22;56560;50.692;12.844;2023-06-14T13:12:36;32.30;28.00
69382;DHT22;56560;50.692;12.844;2023-06-14T13:15:02;31.00;29.30
69382;DHT22;56560;50.692;12.844;2023-06-14T13:17:27;30.90;29.70
69382;DHT22;56560;50.692;12.844;2023-06-14T13:19:53;31.80;29.00
69382;DHT22;56560;50.692;12.844;2023-06-14T13:22:19;31.70;29.10
69382;DHT22;56560;50.692;12.844;2023-06-14T13:24:44;30.50;29.80
69382;DHT22;56560;50.692;12.844;2023-06-14T13:27:10;29.00;31.70
69382;DHT22;56560;50.692;12.844;2023-06-14T13:29:36;27.90;33.20
69382;DHT22;56560;50.692;12.844;2023-06-14T13:32:03;26.80;34.70
69382;DHT22;56560;50.692;12.844;2023-06-14T13:34:29;26.40;35.60
69382;DHT22;56560;50.692;12.844;2023-06-14T13:36:54;26.40;35.50
69382;DHT22;56560;50.692;12.844;2023-06-14T13:39:20;26.10;35.20
69382;DHT22;56560;50.692;12.844;2023-06-14T13:41:46;26.20;36.00
69382;DHT22;56560;50.692;12.844;2023-06-14T13:44:12;27.20;34.50
69382;DHT22;56560;50.692;12.844;2023-06-14T13:46:40;27.90;33.30
69382;DHT22;56560;50.692;12.844;2023-06-14T13:49:08;29.00;32.30
69382;DHT22;56560;50.692;12.844;2023-06-14T13:51:34;31.00;30.90
69382;DHT22;56560;50.692;12.844;2023-06-14T13:54:00;32.50;29.10
69382;DHT22;56560;50.692;12.844;2023-06-14T13:56:26;32.00;28.60
69382;DHT22;56560;50.692;12.844;2023-06-14T13:58:52;30.60;30.30
69382;DHT22;56560;50.692;12.844;2023-06-14T14:01:18;29.50;31.20
69382;DHT22;56560;50.692;12.844;2023-06-14T14:03:45;28.70;31.70
69382;DHT22;56560;50.692;12.844;2023-06-14T14:06:11;27.90;33.00
69382;DHT22;56560;50.692;12.844;2023-06-14T14:08:37;28.10;33.20
69382;DHT22;56560;50.692;12.844;2023-06-14T14:11:03;28.90;32.50
69382;DHT22;56560;50.692;12.844;2023-06-14T14:13:28;30.20;31.50
69382;DHT22;56560;50.692;12.844;2023-06-14T14:15:54;31.80;29.80
69382;DHT22;56560;50.692;12.844;2023-06-14T14:18:20;32.20;29.90
69382;DHT22;56560;50.692;12.844;2023-06-14T14:20:46;31.60;30.00
69382;DHT22;56560;50.692;12.844;2023-06-14T14:23:12;31.00;30.30
69382;DHT22;56560;50.692;12.844;2023-06-14T14:25:38;31.10;30.00
69382;DHT22;56560;50.692;12.844;2023-06-14T14:28:03;32.10;29.10
69382;DHT22;56560;50.692;12.844;2023-06-14T14:30:29;32.80;28.70
69382;DHT22;56560;50.692;12.844;2023-06-14T14:32:55;33.40;28.70
69382;DHT22;56560;50.692;12.844;2023-06-14T14:35:21;33.10;29.20
69382;DHT22;56560;50.692;12.844;2023-06-14T14:37:47;33.50;29.10
69382;DHT22;56560;50.692;12.844;2023-06-14T14:40:13;33.30;28.60
69382;DHT22;56560;50.692;12.844;2023-06-14T14:42:39;33.00;29.20
69382;DHT22;56560;50.692;12.844;2023-06-14T14:45:05;32.90;29.40
69382;DHT22;56560;50.692;12.844;2023-06-14T14:47:31;33.50;29.00
69382;DHT22;56560;50.692;12.844;2023-06-14T14:49:56;34.30;28.20
69382;DHT22;56560;50.692;12.844;2023-06-14T14:52:22;34.70;27.90
69382;DHT22;56560;50.692;12.844;2023-06-14T14:54:47;35.00;27.60
69382;DHT22;56560;50.692;12.844;2023-06-14T14:57:13;35.00;27.50
69382;DHT22;56560;50.692;12.844;2023-06-14T14:59:39;34.80;27.70
69382;DHT22;56560;50.692;12.844;2023-06-14T15:02:05;35.20;27.10
69382;DHT22;56560;50.692;12.844;2023-06-14T15:04:30;34.70;27.00
69382;DHT22;56560;50.692;12.844;2023-06-14T15:06:57;34.20;27.40
69382;DHT22;56560;50.692;12.844;2023-06-14T15:09:23;33.20;28.30
69382;DHT22;56560;50.692;12.844;2023-06-14T15:11:48;32.60;30.00
69382;DHT22;56560;50.692;12.844;2023-06-14T15:14:14;33.50;28.40
69382;DHT22;56560;50.692;12.844;2023-06-14T15:16:40;34.40;28.10
69382;DHT22;56560;50.692;12.844;2023-06-14T15:19:06;35.00;27.60
69382;DHT22;56560;50.692;12.844;2023-06-14T15:21:31;35.90;26.60
69382;DHT22;56560;50.692;12.844;2023-06-14T15:23:57;35.80;27.00
69382;DHT22;56560;50.692;12.844;2023-06-14T15:26:23;35.50;26.90
69382;DHT22;56560;50.692;12.844;2023-06-14T15:28:50;33.80;28.30
69382;DHT22;56560;50.692;12.844;2023-06-14T15:31:16;31.40;30.00
69382;DHT22;56560;50.692;12.844;2023-06-14T15:33:41;29.80;32.20
69382;DHT22;56560;50.692;12.844;2023-06-14T15:36:07;29.50;31.30